sensor_id;sensor_type;location;lat;lon;timestamp;P1;durP1;ratioP1;P2;durP2;ratioP2
49217;SDS011;35045;51.194;7.268;2023-04-06T00:02:03;15.05;;;10.80;;
49217;SDS011;35045;51.194;7.268;2023-04-06T00:04:30;14.77;;;10.35;;
49217;SDS011;35045;51.194;7.268;2023-04-06T00:06:56;14.68;;;10.95;;
49217;SDS011;35045;51.194;7.268;2023-04-06T00:09:22;16.55;;;12.07;;
49217;SDS011;35045;51.194;7.268;2023-04-06T00:11:48;15.25;;;11.85;;
49217;SDS011;35045;51.194;7.268;2023-04-06T00:14:14;14.05;;;10.40;;
49217;SDS011;35045;51.194;7.268;2023-04-06T00:16:42;13.90;;;10.00;;
49217;SDS011;35045;51.194;7.268;2023-04-06T00:19:09;13.63;;;9.95;;
49217;SDS011;35045;51.194;7.268;2023-04-06T00:21:35;14.88;;;10.98;;
49217;SDS011;35045;51.194;7.268;2023-04-06T00:24:01;16.10;;;10.48;;
49217;SDS011;35045;51.194;7.268;2023-04-06T00:26:29;13.98;;;10.52;;
49217;SDS011;35045;51.194;7.268;2023-04-06T00:28:55;17.85;;;10.82;;
49217;SDS011;35045;51.194;7.268;2023-04-06T00:31:21;16.67;;;10.93;;
49217;SDS011;35045;51.194;7.268;2023-04-06T00:33:48;14.85;;;9.93;;
49217;SDS011;35045;51.194;7.268;2023-04-06T00:36:14;12.93;;;10.13;;
49217;SDS011;35045;51.194;7.268;2023-04-06T00:38:40;14.32;;;10.48;;
49217;SDS011;35045;51.194;7.268;2023-04-06T00:41:06;13.23;;;9.68;;
49217;SDS011;35045;51.194;7.268;2023-04-06T00:43:33;13.93;;;10.45;;
49217;SDS011;35045;51.194;7.268;2023-04-06T00:45:59;16.58;;;10.10;;
49217;SDS011;35045;51.194;7.268;2023-04-06T00:48:25;15.07;;;10.68;;
49217;SDS011;35045;51.194;7.268;2023-04-06T00:50:51;13.68;;;10.13;;
49217;SDS011;35045;51.194;7.268;2023-04-06T00:53:17;14.52;;;9.48;;
49217;SDS011;35045;51.194;7.268;2023-04-06T00:55:44;16.80;;;10.82;;
49217;SDS011;35045;51.194;7.268;2023-04-06T00:58:10;14.77;;;10.27;;
49217;SDS011;35045;51.194;7.268;2023-04-06T01:00:36;14.77;;;10.25;;
49217;SDS011;35045;51.194;7.268;2023-04-06T01:03:03;13.63;;;9.38;;
49217;SDS011;35045;51.194;7.268;2023-04-06T01:05:33;13.73;;;9.85;;
49217;SDS011;35045;51.194;7.268;2023-04-06T01:08:00;14.45;;;9.10;;
49217;SDS011;35045;51.194;7.268;2023-04-06T01:10:27;14.80;;;9.95;;
49217;SDS011;35045;51.194;7.268;2023-04-06T01:12:54;15.60;;;9.32;;
49217;SDS011;35045;51.194;7.268;2023-04-06T01:15:20;13.07;;;9.13;;
49217;SDS011;35045;51.194;7.268;2023-04-06T01:17:47;14.32;;;9.63;;
49217;SDS011;35045;51.194;7.268;2023-04-06T01:20:13;13.35;;;9.52;;
49217;SDS011;35045;51.194;7.268;2023-04-06T01:22:40;12.98;;;8.80;;
49217;SDS011;35045;51.194;7.268;2023-04-06T01:25:06;12.60;;;9.88;;
49217;SDS011;35045;51.194;7.268;2023-04-06T01:27:33;12.20;;;9.32;;
49217;SDS011;35045;51.194;7.268;2023-04-06T01:29:59;12.68;;;9.05;;
49217;SDS011;35045;51.194;7.268;2023-04-06T01:32:25;13.45;;;9.50;;
49217;SDS011;35045;51.194;7.268;2023-04-06T01:34:51;11.98;;;8.68;;
49217;SDS011;35045;51.194;7.268;2023-04-06T01:37:17;14.60;;;9.40;;
49217;SDS011;35045;51.194;7.268;2023-04-06T01:39:44;12.90;;;9.32;;
49217;SDS011;35045;51.194;7.268;2023-04-06T01:42:10;11.70;;;8.25;;
49217;SDS011;35045;51.194;7.268;2023-04-06T01:44:36;12.95;;;9.05;;
49217;SDS011;35045;51.194;7.268;2023-04-06T01:47:02;11.95;;;8.65;;
49217;SDS011;35045;51.194;7.268;2023-04-06T01:49:29;15.05;;;8.63;;
49217;SDS011;35045;51.194;7.268;2023-04-06T01:51:55;12.52;;;8.88;;
49217;SDS011;35045;51.194;7.268;2023-04-06T01:54:21;12.98;;;8.43;;
49217;SDS011;35045;51.194;7.268;2023-04-06T01:56:47;11.98;;;8.45;;
49217;SDS011;35045;51.194;7.268;2023-04-06T01:59:16;12.18;;;9.25;;
49217;SDS011;35045;51.194;7.268;2023-04-06T02:01:42;14.10;;;8.18;;
49217;SDS011;35045;51.194;7.268;2023-04-06T02:04:08;13.02;;;9.05;;
49217;SDS011;35045;51.194;7.268;2023-04-06T02:06:34;14.00;;;8.95;;
49217;SDS011;35045;51.194;7.268;2023-04-06T02:09:01;12.68;;;8.63;;
49217;SDS011;35045;51.194;7.268;2023-04-06T02:11:27;12.70;;;8.60;;
49217;SDS011;35045;51.194;7.268;2023-04-06T02:13:53;12.40;;;8.52;;
49217;SDS011;35045;51.194;7.268;2023-04-06T02:16:19;12.00;;;8.20;;
49217;SDS011;35045;51.194;7.268;2023-04-06T02:18:45;13.95;;;8.50;;
49217;SDS011;35045;51.194;7.268;2023-04-06T02:21:12;12.32;;;8.82;;
49217;SDS011;35045;51.194;7.268;2023-04-06T02:23:38;13.70;;;8.68;;
49217;SDS011;35045;51.194;7.268;2023-04-06T02:26:04;11.63;;;8.65;;
49217;SDS011;35045;51.194;7.268;2023-04-06T02:28:30;12.40;;;9.40;;
49217;SDS011;35045;51.194;7.268;2023-04-06T02:30:56;14.13;;;9.18;;
49217;SDS011;35045;51.194;7.268;2023-04-06T02:33:23;11.57;;;8.50;;
49217;SDS011;35045;51.194;7.268;2023-04-06T02:35:49;12.48;;;9.10;;
49217;SDS011;35045;51.194;7.268;2023-04-06T02:38:15;14.07;;;9.45;;
49217;SDS011;35045;51.194;7.268;2023-04-06T02:40:41;12.48;;;8.63;;
49217;SDS011;35045;51.194;7.268;2023-04-06T02:43:08;13.20;;;9.13;;
49217;SDS011;35045;51.194;7.268;2023-04-06T02:45:34;11.57;;;8.75;;
49217;SDS011;35045;51.194;7.268;2023-04-06T02:48:00;13.43;;;8.88;;
49217;SDS011;35045;51.194;7.268;2023-04-06T02:50:26;14.02;;;9.00;;
49217;SDS011;35045;51.194;7.268;2023-04-06T02:52:53;12.52;;;8.32;;
49217;SDS011;35045;51.194;7.268;2023-04-06T02:55:19;12.70;;;8.73;;
49217;SDS011;35045;51.194;7.268;2023-04-06T02:57:46;12.27;;;7.93;;
49217;SDS011;35045;51.194;7.268;2023-04-06T03:00:12;12.98;;;8.82;;
49217;SDS011;35045;51.194;7.268;2023-04-06T03:02:39;13.07;;;9.25;;
49217;SDS011;35045;51.194;7.268;2023-04-06T03:05:05;15.52;;;9.13;;
49217;SDS011;35045;51.194;7.268;2023-04-06T03:07:32;13.77;;;8.60;;
49217;SDS011;35045;51.194;7.268;2023-04-06T03:09:58;12.57;;;9.18;;
49217;SDS011;35045;51.194;7.268;2023-04-06T03:12:24;11.95;;;8.55;;
49217;SDS011;35045;51.194;7.268;2023-04-06T03:14:50;14.57;;;9.73;;
49217;SDS011;35045;51.194;7.268;2023-04-06T03:17:16;12.70;;;8.68;;
49217;SDS011;35045;51.194;7.268;2023-04-06T03:19:42;13.18;;;9.73;;
49217;SDS011;35045;51.194;7.268;2023-04-06T03:22:08;12.90;;;8.75;;
49217;SDS011;35045;51.194;7.268;2023-04-06T03:24:34;15.20;;;9.80;;
49217;SDS011;35045;51.194;7.268;2023-04-06T03:27:01;11.85;;;8.70;;
49217;SDS011;35045;51.194;7.268;2023-04-06T03:29:27;14.43;;;9.40;;
49217;SDS011;35045;51.194;7.268;2023-04-06T03:31:53;11.98;;;8.10;;
49217;SDS011;35045;51.194;7.268;2023-04-06T03:34:20;13.00;;;8.43;;
49217;SDS011;35045;51.194;7.268;2023-04-06T03:36:46;12.93;;;9.32;;
49217;SDS011;35045;51.194;7.268;2023-04-06T03:39:14;12.40;;;9.07;;
49217;SDS011;35045;51.194;7.268;2023-04-06T03:41:40;11.85;;;8.30;;
49217;SDS011;35045;51.194;7.268;2023-04-06T03:44:07;12.55;;;8.65;;
49217;SDS011;35045;51.194;7.268;2023-04-06T03:46:33;12.68;;;8.70;;
49217;SDS011;35045;51.194;7.268;2023-04-06T03:48:59;12.32;;;8.13;;
49217;SDS011;35045;51.194;7.268;2023-04-06T03:51:25;13.35;;;8.68;;
49217;SDS011;35045;51.194;7.268;2023-04-06T03:53:52;11.75;;;8.70;;
49217;SDS011;35045;51.194;7.268;2023-04-06T03:56:18;13.40;;;8.93;;
49217;SDS011;35045;51.194;7.268;2023-04-06T03:58:45;13.13;;;8.23;;
49217;SDS011;35045;51.194;7.268;2023-04-06T04:01:15;11.13;;;8.10;;
49217;SDS011;35045;51.194;7.268;2023-04-06T04:03:41;12.00;;;9.00;;
49217;SDS011;35045;51.194;7.268;2023-04-06T04:06:07;13.63;;;9.23;;
49217;SDS011;35045;51.194;7.268;2023-04-06T04:08:33;13.70;;;9.60;;
49217;SDS011;35045;51.194;7.268;2023-04-06T04:11:01;12.98;;;9.50;;
49217;SDS011;35045;51.194;7.268;2023-04-06T04:13:27;12.70;;;9.18;;
49217;SDS011;35045;51.194;7.268;2023-04-06T04:15:53;13.45;;;8.77;;
49217;SDS011;35045;51.194;7.268;2023-04-06T04:18:19;12.70;;;9.32;;
49217;SDS011;35045;51.194;7.268;2023-04-06T04:20:46;12.75;;;9.10;;
49217;SDS011;35045;51.194;7.268;2023-04-06T04:23:12;14.27;;;9.20;;
49217;SDS011;35045;51.194;7.268;2023-04-06T04:25:38;11.55;;;8.57;;
49217;SDS011;35045;51.194;7.268;2023-04-06T04:28:04;12.73;;;9.65;;
49217;SDS011;35045;51.194;7.268;2023-04-06T04:30:30;12.23;;;8.70;;
49217;SDS011;35045;51.194;7.268;2023-04-06T04:32:56;12.02;;;9.55;;
49217;SDS011;35045;51.194;7.268;2023-04-06T04:35:22;12.43;;;8.90;;
49217;SDS011;35045;51.194;7.268;2023-04-06T04:37:49;13.75;;;9.50;;
49217;SDS011;35045;51.194;7.268;2023-04-06T04:40:15;12.48;;;8.82;;
49217;SDS011;35045;51.194;7.268;2023-04-06T04:42:42;16.23;;;8.98;;
49217;SDS011;35045;51.194;7.268;2023-04-06T04:45:08;11.15;;;8.57;;
49217;SDS011;35045;51.194;7.268;2023-04-06T04:47:34;13.35;;;9.98;;
49217;SDS011;35045;51.194;7.268;2023-04-06T04:50:01;13.85;;;9.73;;
49217;SDS011;35045;51.194;7.268;2023-04-06T04:52:27;12.90;;;9.23;;
49217;SDS011;35045;51.194;7.268;2023-04-06T04:54:53;13.07;;;9.43;;
49217;SDS011;35045;51.194;7.268;2023-04-06T04:57:19;14.52;;;9.00;;
49217;SDS011;35045;51.194;7.268;2023-04-06T04:59:45;13.05;;;9.32;;
49217;SDS011;35045;51.194;7.268;2023-04-06T05:02:12;13.02;;;8.85;;
49217;SDS011;35045;51.194;7.268;2023-04-06T05:04:38;12.50;;;9.23;;
49217;SDS011;35045;51.194;7.268;2023-04-06T05:09:34;12.75;;;9.15;;
49217;SDS011;35045;51.194;7.268;2023-04-06T05:12:00;11.35;;;8.68;;
49217;SDS011;35045;51.194;7.268;2023-04-06T05:14:27;13.07;;;8.65;;
49217;SDS011;35045;51.194;7.268;2023-04-06T05:16:54;12.82;;;8.45;;
49217;SDS011;35045;51.194;7.268;2023-04-06T05:19:21;14.60;;;9.10;;
49217;SDS011;35045;51.194;7.268;2023-04-06T05:21:50;11.52;;;8.35;;
49217;SDS011;35045;51.194;7.268;2023-04-06T05:24:17;13.27;;;8.23;;
49217;SDS011;35045;51.194;7.268;2023-04-06T05:26:43;12.50;;;8.25;;
49217;SDS011;35045;51.194;7.268;2023-04-06T05:29:11;13.02;;;8.50;;
49217;SDS011;35045;51.194;7.268;2023-04-06T05:31:38;13.93;;;8.85;;
49217;SDS011;35045;51.194;7.268;2023-04-06T05:34:04;11.48;;;8.20;;
49217;SDS011;35045;51.194;7.268;2023-04-06T05:36:30;13.27;;;8.85;;
49217;SDS011;35045;51.194;7.268;2023-04-06T05:38:57;11.50;;;7.85;;
49217;SDS011;35045;51.194;7.268;2023-04-06T05:41:24;11.38;;;8.60;;
49217;SDS011;35045;51.194;7.268;2023-04-06T05:43:50;10.95;;;7.63;;
49217;SDS011;35045;51.194;7.268;2023-04-06T05:46:16;11.85;;;8.20;;
49217;SDS011;35045;51.194;7.268;2023-04-06T05:48:42;11.23;;;7.82;;
49217;SDS011;35045;51.194;7.268;2023-04-06T05:51:08;10.32;;;7.72;;
49217;SDS011;35045;51.194;7.268;2023-04-06T05:53:34;11.05;;;7.45;;
49217;SDS011;35045;51.194;7.268;2023-04-06T05:56:01;11.10;;;7.55;;
49217;SDS011;35045;51.194;7.268;2023-04-06T05:58:28;12.02;;;7.57;;
49217;SDS011;35045;51.194;7.268;2023-04-06T06:01:00;11.90;;;7.53;;
49217;SDS011;35045;51.194;7.268;2023-04-06T06:03:27;10.70;;;7.13;;
49217;SDS011;35045;51.194;7.268;2023-04-06T06:05:53;10.25;;;7.15;;
49217;SDS011;35045;51.194;7.268;2023-04-06T06:08:19;12.55;;;7.70;;
49217;SDS011;35045;51.194;7.268;2023-04-06T06:10:45;11.27;;;7.47;;
49217;SDS011;35045;51.194;7.268;2023-04-06T06:13:11;12.35;;;8.30;;
49217;SDS011;35045;51.194;7.268;2023-04-06T06:15:38;11.82;;;8.13;;
49217;SDS011;35045;51.194;7.268;2023-04-06T06:18:04;10.23;;;7.60;;
49217;SDS011;35045;51.194;7.268;2023-04-06T06:20:30;11.15;;;7.57;;
49217;SDS011;35045;51.194;7.268;2023-04-06T06:22:56;11.38;;;7.35;;
49217;SDS011;35045;51.194;7.268;2023-04-06T06:25:22;11.68;;;7.47;;
49217;SDS011;35045;51.194;7.268;2023-04-06T06:27:49;12.88;;;7.82;;
49217;SDS011;35045;51.194;7.268;2023-04-06T06:30:16;13.27;;;8.25;;
49217;SDS011;35045;51.194;7.268;2023-04-06T06:32:42;13.18;;;8.45;;
49217;SDS011;35045;51.194;7.268;2023-04-06T06:35:08;13.88;;;8.80;;
49217;SDS011;35045;51.194;7.268;2023-04-06T06:37:35;14.35;;;8.85;;
49217;SDS011;35045;51.194;7.268;2023-04-06T06:40:01;12.75;;;8.68;;
49217;SDS011;35045;51.194;7.268;2023-04-06T06:42:27;13.90;;;8.38;;
49217;SDS011;35045;51.194;7.268;2023-04-06T06:44:53;13.10;;;8.75;;
49217;SDS011;35045;51.194;7.268;2023-04-06T06:47:19;14.63;;;8.02;;
49217;SDS011;35045;51.194;7.268;2023-04-06T06:49:46;11.93;;;7.30;;
49217;SDS011;35045;51.194;7.268;2023-04-06T06:52:12;14.45;;;8.35;;
49217;SDS011;35045;51.194;7.268;2023-04-06T06:54:38;11.93;;;7.43;;
49217;SDS011;35045;51.194;7.268;2023-04-06T06:57:04;11.07;;;7.50;;
49217;SDS011;35045;51.194;7.268;2023-04-06T06:59:30;13.23;;;8.25;;
49217;SDS011;35045;51.194;7.268;2023-04-06T07:01:56;11.55;;;7.32;;
49217;SDS011;35045;51.194;7.268;2023-04-06T07:04:23;10.82;;;7.43;;
49217;SDS011;35045;51.194;7.268;2023-04-06T07:06:49;11.57;;;7.38;;
49217;SDS011;35045;51.194;7.268;2023-04-06T07:09:16;13.18;;;7.57;;
49217;SDS011;35045;51.194;7.268;2023-04-06T07:11:42;12.02;;;7.32;;
49217;SDS011;35045;51.194;7.268;2023-04-06T07:14:08;11.48;;;7.57;;
49217;SDS011;35045;51.194;7.268;2023-04-06T07:16:34;13.50;;;7.25;;
49217;SDS011;35045;51.194;7.268;2023-04-06T07:19:00;10.13;;;7.03;;
49217;SDS011;35045;51.194;7.268;2023-04-06T07:21:27;11.15;;;7.07;;
49217;SDS011;35045;51.194;7.268;2023-04-06T07:23:53;11.80;;;7.05;;
49217;SDS011;35045;51.194;7.268;2023-04-06T07:26:19;11.02;;;7.03;;
49217;SDS011;35045;51.194;7.268;2023-04-06T07:28:45;12.15;;;6.93;;
49217;SDS011;35045;51.194;7.268;2023-04-06T07:31:11;11.57;;;6.93;;
49217;SDS011;35045;51.194;7.268;2023-04-06T07:33:38;10.23;;;6.50;;
49217;SDS011;35045;51.194;7.268;2023-04-06T07:36:04;12.15;;;6.88;;
49217;SDS011;35045;51.194;7.268;2023-04-06T07:38:30;10.15;;;6.88;;
49217;SDS011;35045;51.194;7.268;2023-04-06T07:41:02;11.88;;;6.82;;
49217;SDS011;35045;51.194;7.268;2023-04-06T07:43:29;16.70;;;7.38;;
49217;SDS011;35045;51.194;7.268;2023-04-06T07:45:56;11.35;;;6.68;;
49217;SDS011;35045;51.194;7.268;2023-04-06T07:48:23;11.93;;;7.38;;
49217;SDS011;35045;51.194;7.268;2023-04-06T07:50:49;11.57;;;7.10;;
49217;SDS011;35045;51.194;7.268;2023-04-06T07:53:15;12.77;;;7.03;;
49217;SDS011;35045;51.194;7.268;2023-04-06T07:55:41;12.13;;;6.70;;
49217;SDS011;35045;51.194;7.268;2023-04-06T07:58:07;12.13;;;7.28;;
49217;SDS011;35045;51.194;7.268;2023-04-06T08:00:34;12.30;;;7.32;;
49217;SDS011;35045;51.194;7.268;2023-04-06T08:03:00;13.30;;;7.43;;
49217;SDS011;35045;51.194;7.268;2023-04-06T08:05:26;11.10;;;6.88;;
49217;SDS011;35045;51.194;7.268;2023-04-06T08:07:53;13.27;;;7.05;;
49217;SDS011;35045;51.194;7.268;2023-04-06T08:10:19;11.70;;;7.32;;
49217;SDS011;35045;51.194;7.268;2023-04-06T08:12:45;10.90;;;6.45;;
49217;SDS011;35045;51.194;7.268;2023-04-06T08:15:13;11.88;;;7.00;;
49217;SDS011;35045;51.194;7.268;2023-04-06T08:17:39;13.40;;;7.47;;
49217;SDS011;35045;51.194;7.268;2023-04-06T08:20:05;12.32;;;6.28;;
49217;SDS011;35045;51.194;7.268;2023-04-06T08:22:32;13.95;;;7.50;;
49217;SDS011;35045;51.194;7.268;2023-04-06T08:24:58;12.32;;;7.03;;
49217;SDS011;35045;51.194;7.268;2023-04-06T08:27:24;11.98;;;6.47;;
49217;SDS011;35045;51.194;7.268;2023-04-06T08:29:50;11.73;;;7.13;;
49217;SDS011;35045;51.194;7.268;2023-04-06T08:32:17;12.38;;;6.47;;
49217;SDS011;35045;51.194;7.268;2023-04-06T08:34:43;11.05;;;6.40;;
49217;SDS011;35045;51.194;7.268;2023-04-06T08:37:09;13.95;;;7.85;;
49217;SDS011;35045;51.194;7.268;2023-04-06T08:39:36;10.45;;;6.53;;
49217;SDS011;35045;51.194;7.268;2023-04-06T08:42:02;13.38;;;8.65;;
49217;SDS011;35045;51.194;7.268;2023-04-06T08:44:29;12.05;;;7.82;;
49217;SDS011;35045;51.194;7.268;2023-04-06T08:46:57;12.88;;;8.52;;
49217;SDS011;35045;51.194;7.268;2023-04-06T08:49:25;14.23;;;8.43;;
49217;SDS011;35045;51.194;7.268;2023-04-06T08:51:51;15.45;;;8.27;;
49217;SDS011;35045;51.194;7.268;2023-04-06T08:54:18;12.40;;;7.72;;
49217;SDS011;35045;51.194;7.268;2023-04-06T08:56:44;12.65;;;7.30;;
49217;SDS011;35045;51.194;7.268;2023-04-06T08:59:12;15.50;;;8.80;;
49217;SDS011;35045;51.194;7.268;2023-04-06T09:01:39;13.25;;;7.82;;
49217;SDS011;35045;51.194;7.268;2023-04-06T09:04:08;13.20;;;7.90;;
49217;SDS011;35045;51.194;7.268;2023-04-06T09:06:36;12.30;;;8.30;;
49217;SDS011;35045;51.194;7.268;2023-04-06T09:09:03;14.32;;;7.90;;
49217;SDS011;35045;51.194;7.268;2023-04-06T09:11:29;13.18;;;8.38;;
49217;SDS011;35045;51.194;7.268;2023-04-06T09:14:07;13.90;;;8.65;;
49217;SDS011;35045;51.194;7.268;2023-04-06T09:16:40;14.20;;;8.35;;
49217;SDS011;35045;51.194;7.268;2023-04-06T09:19:07;13.48;;;8.57;;
49217;SDS011;35045;51.194;7.268;2023-04-06T09:21:35;13.07;;;8.73;;
49217;SDS011;35045;51.194;7.268;2023-04-06T09:24:02;16.58;;;8.93;;
49217;SDS011;35045;51.194;7.268;2023-04-06T09:26:29;12.48;;;8.30;;
49217;SDS011;35045;51.194;7.268;2023-04-06T09:28:56;19.90;;;9.20;;
49217;SDS011;35045;51.194;7.268;2023-04-06T09:31:30;14.40;;;9.43;;
49217;SDS011;35045;51.194;7.268;2023-04-06T09:33:58;14.60;;;9.15;;
49217;SDS011;35045;51.194;7.268;2023-04-06T09:36:29;16.38;;;9.38;;
49217;SDS011;35045;51.194;7.268;2023-04-06T09:39:01;17.85;;;9.73;;
49217;SDS011;35045;51.194;7.268;2023-04-06T09:41:32;17.35;;;9.93;;
49217;SDS011;35045;51.194;7.268;2023-04-06T09:44:11;16.02;;;9.55;;
49217;SDS011;35045;51.194;7.268;2023-04-06T09:46:38;13.98;;;9.65;;
49217;SDS011;35045;51.194;7.268;2023-04-06T09:49:20;15.52;;;9.90;;
49217;SDS011;35045;51.194;7.268;2023-04-06T09:51:55;14.52;;;9.93;;
49217;SDS011;35045;51.194;7.268;2023-04-06T09:54:26;17.42;;;9.68;;
49217;SDS011;35045;51.194;7.268;2023-04-06T09:57:03;15.57;;;9.98;;
49217;SDS011;35045;51.194;7.268;2023-04-06T10:05:30;15.05;;;9.98;;
49217;SDS011;35045;51.194;7.268;2023-04-06T10:08:09;15.77;;;9.90;;
49217;SDS011;35045;51.194;7.268;2023-04-06T10:10:36;19.42;;;10.10;;
49217;SDS011;35045;51.194;7.268;2023-04-06T10:13:03;15.43;;;10.40;;
49217;SDS011;35045;51.194;7.268;2023-04-06T10:15:30;16.98;;;10.45;;
49217;SDS011;35045;51.194;7.268;2023-04-06T10:17:57;16.00;;;10.75;;
49217;SDS011;35045;51.194;7.268;2023-04-06T10:20:28;18.10;;;11.43;;
49217;SDS011;35045;51.194;7.268;2023-04-06T10:22:57;19.08;;;11.23;;
49217;SDS011;35045;51.194;7.268;2023-04-06T10:25:39;16.98;;;10.65;;
49217;SDS011;35045;51.194;7.268;2023-04-06T10:28:17;16.48;;;10.60;;
49217;SDS011;35045;51.194;7.268;2023-04-06T10:30:45;17.25;;;11.52;;
49217;SDS011;35045;51.194;7.268;2023-04-06T10:33:14;15.82;;;10.13;;
49217;SDS011;35045;51.194;7.268;2023-04-06T10:35:45;17.40;;;10.88;;
49217;SDS011;35045;51.194;7.268;2023-04-06T10:38:11;17.48;;;10.70;;
49217;SDS011;35045;51.194;7.268;2023-04-06T10:40:40;17.92;;;10.80;;
49217;SDS011;35045;51.194;7.268;2023-04-06T10:43:20;17.73;;;11.48;;
49217;SDS011;35045;51.194;7.268;2023-04-06T10:45:57;19.13;;;11.93;;
49217;SDS011;35045;51.194;7.268;2023-04-06T10:48:42;18.17;;;11.98;;
49217;SDS011;35045;51.194;7.268;2023-04-06T10:51:11;20.20;;;11.93;;
49217;SDS011;35045;51.194;7.268;2023-04-06T10:53:40;17.10;;;11.55;;
49217;SDS011;35045;51.194;7.268;2023-04-06T10:56:11;16.70;;;11.75;;
49217;SDS011;35045;51.194;7.268;2023-04-06T10:58:43;16.00;;;11.02;;
49217;SDS011;35045;51.194;7.268;2023-04-06T11:01:12;19.08;;;11.38;;
49217;SDS011;35045;51.194;7.268;2023-04-06T11:03:48;17.80;;;11.23;;
49217;SDS011;35045;51.194;7.268;2023-04-06T11:06:22;18.08;;;11.68;;
49217;SDS011;35045;51.194;7.268;2023-04-06T11:08:51;17.75;;;11.65;;
49217;SDS011;35045;51.194;7.268;2023-04-06T11:11:18;19.10;;;11.40;;
49217;SDS011;35045;51.194;7.268;2023-04-06T11:13:46;19.10;;;11.40;;
49217;SDS011;35045;51.194;7.268;2023-04-06T11:16:16;26.17;;;12.48;;
49217;SDS011;35045;51.194;7.268;2023-04-06T11:18:50;21.42;;;12.32;;
49217;SDS011;35045;51.194;7.268;2023-04-06T11:21:42;16.08;;;11.10;;
49217;SDS011;35045;51.194;7.268;2023-04-06T11:26:45;16.40;;;10.50;;
49217;SDS011;35045;51.194;7.268;2023-04-06T11:29:17;18.23;;;11.48;;
49217;SDS011;35045;51.194;7.268;2023-04-06T11:31:46;18.73;;;10.43;;
49217;SDS011;35045;51.194;7.268;2023-04-06T11:34:16;19.05;;;11.10;;
49217;SDS011;35045;51.194;7.268;2023-04-06T11:36:49;17.27;;;9.90;;
49217;SDS011;35045;51.194;7.268;2023-04-06T11:39:24;16.58;;;10.60;;
49217;SDS011;35045;51.194;7.268;2023-04-06T11:41:53;16.23;;;10.95;;
49217;SDS011;35045;51.194;7.268;2023-04-06T11:44:55;18.70;;;11.30;;
49217;SDS011;35045;51.194;7.268;2023-04-06T11:47:15;15.57;;;10.10;;
49217;SDS011;35045;51.194;7.268;2023-04-06T11:49:42;17.60;;;11.48;;
49217;SDS011;35045;51.194;7.268;2023-04-06T11:52:22;16.55;;;10.40;;
49217;SDS011;35045;51.194;7.268;2023-04-06T11:54:51;15.65;;;10.88;;
49217;SDS011;35045;51.194;7.268;2023-04-06T11:57:18;22.17;;;11.40;;
49217;SDS011;35045;51.194;7.268;2023-04-06T11:59:46;19.67;;;11.40;;
49217;SDS011;35045;51.194;7.268;2023-04-06T12:02:12;16.58;;;10.95;;
49217;SDS011;35045;51.194;7.268;2023-04-06T12:04:38;16.95;;;10.55;;
49217;SDS011;35045;51.194;7.268;2023-04-06T12:07:05;15.93;;;10.02;;
49217;SDS011;35045;51.194;7.268;2023-04-06T12:09:31;17.85;;;11.57;;
49217;SDS011;35045;51.194;7.268;2023-04-06T12:11:57;19.48;;;10.98;;
49217;SDS011;35045;51.194;7.268;2023-04-06T12:14:24;16.00;;;10.85;;
49217;SDS011;35045;51.194;7.268;2023-04-06T12:16:50;17.48;;;11.25;;
49217;SDS011;35045;51.194;7.268;2023-04-06T12:19:16;17.83;;;11.75;;
49217;SDS011;35045;51.194;7.268;2023-04-06T12:21:43;17.40;;;11.82;;
49217;SDS011;35045;51.194;7.268;2023-04-06T12:24:09;16.48;;;10.73;;
49217;SDS011;35045;51.194;7.268;2023-04-06T12:26:35;15.43;;;11.52;;
49217;SDS011;35045;51.194;7.268;2023-04-06T12:29:02;17.13;;;12.23;;
49217;SDS011;35045;51.194;7.268;2023-04-06T12:31:35;17.25;;;11.15;;
49217;SDS011;35045;51.194;7.268;2023-04-06T12:34:02;18.00;;;10.98;;
49217;SDS011;35045;51.194;7.268;2023-04-06T12:36:28;16.05;;;11.10;;
49217;SDS011;35045;51.194;7.268;2023-04-06T12:38:55;16.45;;;11.25;;
49217;SDS011;35045;51.194;7.268;2023-04-06T12:41:21;17.50;;;11.43;;
49217;SDS011;35045;51.194;7.268;2023-04-06T12:43:48;19.42;;;11.95;;
49217;SDS011;35045;51.194;7.268;2023-04-06T12:46:15;17.90;;;11.45;;
49217;SDS011;35045;51.194;7.268;2023-04-06T12:48:41;16.65;;;11.48;;
49217;SDS011;35045;51.194;7.268;2023-04-06T12:51:07;16.08;;;10.88;;
49217;SDS011;35045;51.194;7.268;2023-04-06T12:53:34;16.02;;;11.18;;
49217;SDS011;35045;51.194;7.268;2023-04-06T12:56:01;17.77;;;11.07;;
49217;SDS011;35045;51.194;7.268;2023-04-06T12:58:28;18.42;;;11.18;;
49217;SDS011;35045;51.194;7.268;2023-04-06T13:00:55;16.33;;;10.57;;
49217;SDS011;35045;51.194;7.268;2023-04-06T13:03:28;16.52;;;10.80;;
49217;SDS011;35045;51.194;7.268;2023-04-06T13:05:55;14.73;;;10.20;;
49217;SDS011;35045;51.194;7.268;2023-04-06T13:08:21;15.80;;;10.38;;
49217;SDS011;35045;51.194;7.268;2023-04-06T13:10:47;15.50;;;10.57;;
49217;SDS011;35045;51.194;7.268;2023-04-06T13:13:15;15.88;;;9.55;;
49217;SDS011;35045;51.194;7.268;2023-04-06T13:15:41;15.90;;;10.90;;
49217;SDS011;35045;51.194;7.268;2023-04-06T13:18:07;16.65;;;9.93;;
49217;SDS011;35045;51.194;7.268;2023-04-06T13:20:34;16.23;;;9.73;;
49217;SDS011;35045;51.194;7.268;2023-04-06T13:23:01;15.13;;;9.85;;
49217;SDS011;35045;51.194;7.268;2023-04-06T13:25:27;16.13;;;9.68;;
49217;SDS011;35045;51.194;7.268;2023-04-06T13:27:54;14.07;;;9.73;;
49217;SDS011;35045;51.194;7.268;2023-04-06T13:30:20;16.63;;;10.52;;
49217;SDS011;35045;51.194;7.268;2023-04-06T13:32:47;16.38;;;10.50;;
49217;SDS011;35045;51.194;7.268;2023-04-06T13:35:13;15.32;;;9.85;;
49217;SDS011;35045;51.194;7.268;2023-04-06T13:37:39;16.85;;;10.40;;
49217;SDS011;35045;51.194;7.268;2023-04-06T13:40:06;14.48;;;9.55;;
49217;SDS011;35045;51.194;7.268;2023-04-06T13:42:32;15.90;;;9.82;;
49217;SDS011;35045;51.194;7.268;2023-04-06T13:45:01;15.00;;;9.40;;
49217;SDS011;35045;51.194;7.268;2023-04-06T13:47:27;14.45;;;9.05;;
49217;SDS011;35045;51.194;7.268;2023-04-06T13:49:53;13.23;;;7.97;;
49217;SDS011;35045;51.194;7.268;2023-04-06T13:52:20;15.52;;;9.15;;
49217;SDS011;35045;51.194;7.268;2023-04-06T13:54:47;13.07;;;7.72;;
49217;SDS011;35045;51.194;7.268;2023-04-06T13:57:15;12.90;;;7.50;;
49217;SDS011;35045;51.194;7.268;2023-04-06T13:59:41;13.38;;;7.50;;
49217;SDS011;35045;51.194;7.268;2023-04-06T14:02:12;14.20;;;8.13;;
49217;SDS011;35045;51.194;7.268;2023-04-06T14:04:39;12.45;;;8.00;;
49217;SDS011;35045;51.194;7.268;2023-04-06T14:07:05;14.50;;;9.13;;
49217;SDS011;35045;51.194;7.268;2023-04-06T14:09:33;13.63;;;9.02;;
49217;SDS011;35045;51.194;7.268;2023-04-06T14:11:59;12.57;;;8.63;;
49217;SDS011;35045;51.194;7.268;2023-04-06T14:14:25;12.73;;;8.50;;
49217;SDS011;35045;51.194;7.268;2023-04-06T14:16:52;15.50;;;8.82;;
49217;SDS011;35045;51.194;7.268;2023-04-06T14:19:18;15.77;;;9.23;;
49217;SDS011;35045;51.194;7.268;2023-04-06T14:21:44;13.07;;;8.95;;
49217;SDS011;35045;51.194;7.268;2023-04-06T14:24:11;13.48;;;8.50;;
49217;SDS011;35045;51.194;7.268;2023-04-06T14:26:38;15.30;;;8.60;;
49217;SDS011;35045;51.194;7.268;2023-04-06T14:29:05;13.60;;;8.27;;
49217;SDS011;35045;51.194;7.268;2023-04-06T14:31:31;15.93;;;8.50;;
49217;SDS011;35045;51.194;7.268;2023-04-06T14:34:00;13.05;;;8.60;;
49217;SDS011;35045;51.194;7.268;2023-04-06T14:36:27;13.25;;;8.15;;
49217;SDS011;35045;51.194;7.268;2023-04-06T14:38:56;13.95;;;8.93;;
49217;SDS011;35045;51.194;7.268;2023-04-06T14:41:23;14.27;;;8.05;;
49217;SDS011;35045;51.194;7.268;2023-04-06T14:43:50;12.93;;;8.65;;